sensor_id;sensor_type;location;lat;lon;timestamp;pressure;altitude;pressure_sealevel;temperature;humidity
63115;BME280;49208;50.874;6.466;2022-08-04T00:03:27;100148.63;;;21.18;66.73
63115;BME280;49208;50.874;6.466;2022-08-04T00:06:02;100157.16;;;21.14;66.67
63115;BME280;49208;50.874;6.466;2022-08-04T00:11:07;100152.38;;;21.06;65.36
63115;BME280;49208;50.874;6.466;2022-08-04T00:13:38;100152.78;;;21.02;65.74
63115;BME280;49208;50.874;6.466;2022-08-04T00:16:08;100140.50;;;20.97;65.92
63115;BME280;49208;50.874;6.466;2022-08-04T00:18:39;100151.47;;;20.96;66.22
63115;BME280;49208;50.874;6.466;2022-08-04T00:21:08;100149.00;;;20.93;66.08
63115;BME280;49208;50.874;6.466;2022-08-04T00:23:34;100142.13;;;20.89;65.57
63115;BME280;49208;50.874;6.466;2022-08-04T00:26:01;100144.09;;;20.87;66.03
63115;BME280;49208;50.874;6.466;2022-08-04T00:28:28;100147.06;;;20.84;65.61
63115;BME280;49208;50.874;6.466;2022-08-04T00:30:54;100138.22;;;20.82;66.59
63115;BME280;49208;50.874;6.466;2022-08-04T00:33:20;100138.34;;;20.80;66.92
63115;BME280;49208;50.874;6.466;2022-08-04T00:35:49;100135.88;;;20.77;67.27
63115;BME280;49208;50.874;6.466;2022-08-04T00:38:16;100137.13;;;20.73;67.69
63115;BME280;49208;50.874;6.466;2022-08-04T00:40:49;100136.53;;;20.69;67.81
63115;BME280;49208;50.874;6.466;2022-08-04T00:43:31;100133.97;;;20.68;67.44
63115;BME280;49208;50.874;6.466;2022-08-04T00:46:23;100140.59;;;20.64;67.85
63115;BME280;49208;50.874;6.466;2022-08-04T00:49:02;100129.19;;;20.60;68.11
63115;BME280;49208;50.874;6.466;2022-08-04T00:51:43;100131.16;;;20.58;67.78
63115;BME280;49208;50.874;6.466;2022-08-04T00:59:30;100136.44;;;20.48;67.43
63115;BME280;49208;50.874;6.466;2022-08-04T01:02:09;100135.81;;;20.45;67.90
63115;BME280;49208;50.874;6.466;2022-08-04T01:08:04;100137.91;;;20.41;68.64
63115;BME280;49208;50.874;6.466;2022-08-04T01:26:51;100122.47;;;20.09;69.58
63115;BME280;49208;50.874;6.466;2022-08-04T01:29:21;100118.31;;;20.05;70.40
63115;BME280;49208;50.874;6.466;2022-08-04T01:32:04;100116.09;;;19.99;69.86
63115;BME280;49208;50.874;6.466;2022-08-04T01:34:59;100118.16;;;19.95;70.37
63115;BME280;49208;50.874;6.466;2022-08-04T01:37:32;100114.00;;;19.91;71.15
63115;BME280;49208;50.874;6.466;2022-08-04T01:40:04;100117.81;;;19.89;71.00
63115;BME280;49208;50.874;6.466;2022-08-04T01:42:34;100118.78;;;19.88;70.44
63115;BME280;49208;50.874;6.466;2022-08-04T01:45:03;100114.47;;;19.85;70.00
63115;BME280;49208;50.874;6.466;2022-08-04T01:47:29;100118.28;;;19.83;70.16
63115;BME280;49208;50.874;6.466;2022-08-04T01:50:03;100112.16;;;19.81;70.29
63115;BME280;49208;50.874;6.466;2022-08-04T01:52:30;100108.72;;;19.78;70.19
63115;BME280;49208;50.874;6.466;2022-08-04T01:54:56;100107.97;;;19.76;70.39
63115;BME280;49208;50.874;6.466;2022-08-04T01:57:22;100109.09;;;19.74;71.58
63115;BME280;49208;50.874;6.466;2022-08-04T01:59:50;100106.69;;;19.69;71.20
63115;BME280;49208;50.874;6.466;2022-08-04T02:02:16;100105.25;;;19.65;71.45
63115;BME280;49208;50.874;6.466;2022-08-04T02:04:41;100099.34;;;19.60;71.93
63115;BME280;49208;50.874;6.466;2022-08-04T02:07:19;100096.00;;;19.56;71.87
63115;BME280;49208;50.874;6.466;2022-08-04T02:09:58;100100.06;;;19.51;72.36
63115;BME280;49208;50.874;6.466;2022-08-04T02:20:37;100086.81;;;19.36;72.24
63115;BME280;49208;50.874;6.466;2022-08-04T02:23:09;100082.47;;;19.34;72.46
63115;BME280;49208;50.874;6.466;2022-08-04T02:25:55;100086.16;;;19.33;72.53
63115;BME280;49208;50.874;6.466;2022-08-04T02:28:48;100082.84;;;19.29;73.41
63115;BME280;49208;50.874;6.466;2022-08-04T02:34:36;100082.22;;;19.26;74.08
63115;BME280;49208;50.874;6.466;2022-08-04T02:36:58;100075.22;;;19.23;74.20
63115;BME280;49208;50.874;6.466;2022-08-04T02:39:25;100078.06;;;19.22;73.86
63115;BME280;49208;50.874;6.466;2022-08-04T02:41:54;100068.50;;;19.17;73.67
63115;BME280;49208;50.874;6.466;2022-08-04T02:44:21;100071.28;;;19.16;73.70
63115;BME280;49208;50.874;6.466;2022-08-04T02:46:51;100071.50;;;19.13;73.78
63115;BME280;49208;50.874;6.466;2022-08-04T02:49:17;100077.16;;;19.10;74.37
63115;BME280;49208;50.874;6.466;2022-08-04T02:51:51;100059.50;;;19.06;74.50
63115;BME280;49208;50.874;6.466;2022-08-04T02:54:19;100068.69;;;19.03;74.93
63115;BME280;49208;50.874;6.466;2022-08-04T02:56:50;100052.84;;;18.98;74.75
63115;BME280;49208;50.874;6.466;2022-08-04T02:59:17;100059.22;;;18.97;75.72
63115;BME280;49208;50.874;6.466;2022-08-04T03:01:44;100060.19;;;18.96;75.97
63115;BME280;49208;50.874;6.466;2022-08-04T03:04:34;100054.94;;;18.95;75.38
63115;BME280;49208;50.874;6.466;2022-08-04T03:09:44;100046.31;;;18.90;74.67
63115;BME280;49208;50.874;6.466;2022-08-04T03:12:37;100053.78;;;18.86;75.22
63115;BME280;49208;50.874;6.466;2022-08-04T03:37:28;100047.81;;;18.70;77.04
63115;BME280;49208;50.874;6.466;2022-08-04T03:48:38;100045.41;;;18.54;77.27
63115;BME280;49208;50.874;6.466;2022-08-04T03:51:33;100044.88;;;18.49;77.80
63115;BME280;49208;50.874;6.466;2022-08-04T04:17:16;100056.63;;;18.36;77.91
63115;BME280;49208;50.874;6.466;2022-08-04T04:25:18;100062.97;;;18.35;76.64
63115;BME280;49208;50.874;6.466;2022-08-04T04:31:01;100060.81;;;18.28;77.14
63115;BME280;49208;50.874;6.466;2022-08-04T04:33:48;100065.47;;;18.26;77.35
63115;BME280;49208;50.874;6.466;2022-08-04T04:42:05;100063.53;;;18.28;77.48
63115;BME280;49208;50.874;6.466;2022-08-04T04:49:56;100063.81;;;18.36;78.49
63115;BME280;49208;50.874;6.466;2022-08-04T04:52:48;100059.91;;;18.40;78.32
63115;BME280;49208;50.874;6.466;2022-08-04T04:55:23;100064.97;;;18.45;78.59
63115;BME280;49208;50.874;6.466;2022-08-04T04:57:52;100061.06;;;18.49;78.10
63115;BME280;49208;50.874;6.466;2022-08-04T05:00:22;100067.00;;;18.54;77.96
63115;BME280;49208;50.874;6.466;2022-08-04T05:06:23;100069.50;;;18.68;77.46
63115;BME280;49208;50.874;6.466;2022-08-04T05:09:07;100080.47;;;18.78;77.38
63115;BME280;49208;50.874;6.466;2022-08-04T05:12:09;100077.19;;;18.86;77.64
63115;BME280;49208;50.874;6.466;2022-08-04T05:14:35;100087.31;;;18.95;77.19
63115;BME280;49208;50.874;6.466;2022-08-04T05:17:16;100079.47;;;19.03;76.99
63115;BME280;49208;50.874;6.466;2022-08-04T05:20:04;100076.06;;;19.12;76.82
63115;BME280;49208;50.874;6.466;2022-08-04T05:22:36;100073.63;;;19.21;76.68
63115;BME280;49208;50.874;6.466;2022-08-04T05:25:07;100072.03;;;19.29;76.38
63115;BME280;49208;50.874;6.466;2022-08-04T05:27:40;100071.47;;;19.37;75.87
63115;BME280;49208;50.874;6.466;2022-08-04T05:30:07;100069.13;;;19.44;75.42
63115;BME280;49208;50.874;6.466;2022-08-04T05:32:39;100072.19;;;19.50;75.42
63115;BME280;49208;50.874;6.466;2022-08-04T05:35:28;100071.72;;;19.56;75.14
63115;BME280;49208;50.874;6.466;2022-08-04T05:37:55;100064.88;;;19.64;74.26
63115;BME280;49208;50.874;6.466;2022-08-04T05:40:23;100065.00;;;19.73;73.11
63115;BME280;49208;50.874;6.466;2022-08-04T05:42:50;100068.69;;;19.84;72.96
63115;BME280;49208;50.874;6.466;2022-08-04T05:45:17;100062.66;;;19.91;72.98
63115;BME280;49208;50.874;6.466;2022-08-04T05:47:44;100070.03;;;20.01;72.55
63115;BME280;49208;50.874;6.466;2022-08-04T05:50:10;100067.59;;;20.09;72.32
63115;BME280;49208;50.874;6.466;2022-08-04T05:52:37;100067.66;;;20.18;71.90
63115;BME280;49208;50.874;6.466;2022-08-04T05:55:04;100068.41;;;20.32;70.88
63115;BME280;49208;50.874;6.466;2022-08-04T05:57:32;100063.44;;;20.48;70.17
63115;BME280;49208;50.874;6.466;2022-08-04T06:00:00;100067.88;;;20.82;69.05
63115;BME280;49208;50.874;6.466;2022-08-04T06:02:29;100059.06;;;21.43;67.77
63115;BME280;49208;50.874;6.466;2022-08-04T06:04:55;100068.75;;;22.76;66.51
63115;BME280;49208;50.874;6.466;2022-08-04T06:07:21;100065.53;;;24.52;61.17
63115;BME280;49208;50.874;6.466;2022-08-04T06:09:47;100067.97;;;26.21;56.02
63115;BME280;49208;50.874;6.466;2022-08-04T06:12:29;100071.78;;;28.01;51.61
63115;BME280;49208;50.874;6.466;2022-08-04T06:14:57;100068.13;;;29.40;46.72
63115;BME280;49208;50.874;6.466;2022-08-04T06:17:30;100069.38;;;30.57;43.90
63115;BME280;49208;50.874;6.466;2022-08-04T06:19:57;100058.75;;;31.40;41.48
63115;BME280;49208;50.874;6.466;2022-08-04T06:22:24;100060.50;;;32.11;37.45
63115;BME280;49208;50.874;6.466;2022-08-04T06:24:52;100053.50;;;32.76;37.02
63115;BME280;49208;50.874;6.466;2022-08-04T06:27:20;100051.47;;;33.18;36.73
63115;BME280;49208;50.874;6.466;2022-08-04T06:29:49;100050.78;;;33.50;37.01
63115;BME280;49208;50.874;6.466;2022-08-04T06:32:16;100053.75;;;33.75;34.15
63115;BME280;49208;50.874;6.466;2022-08-04T06:34:53;100057.13;;;34.42;35.31
63115;BME280;49208;50.874;6.466;2022-08-04T06:37:20;100056.78;;;34.70;33.25
63115;BME280;49208;50.874;6.466;2022-08-04T06:39:47;100056.97;;;35.00;32.16
63115;BME280;49208;50.874;6.466;2022-08-04T06:42:15;100063.91;;;35.67;32.07
63115;BME280;49208;50.874;6.466;2022-08-04T06:44:41;100061.53;;;36.07;31.15
63115;BME280;49208;50.874;6.466;2022-08-04T06:47:09;100066.34;;;36.67;31.13
63115;BME280;49208;50.874;6.466;2022-08-04T06:49:36;100064.50;;;37.03;29.99
63115;BME280;49208;50.874;6.466;2022-08-04T06:52:03;100073.53;;;36.98;31.01
63115;BME280;49208;50.874;6.466;2022-08-04T06:54:30;100066.16;;;36.92;30.84
63115;BME280;49208;50.874;6.466;2022-08-04T06:56:57;100062.72;;;37.09;29.17
63115;BME280;49208;50.874;6.466;2022-08-04T06:59:23;100069.84;;;36.74;30.02
63115;BME280;49208;50.874;6.466;2022-08-04T07:01:50;100063.41;;;36.62;29.85
63115;BME280;49208;50.874;6.466;2022-08-04T07:04:16;100059.66;;;36.38;31.28
63115;BME280;49208;50.874;6.466;2022-08-04T07:06:41;100067.97;;;36.38;30.88
63115;BME280;49208;50.874;6.466;2022-08-04T07:09:07;100068.59;;;36.40;30.10
63115;BME280;49208;50.874;6.466;2022-08-04T07:11:33;100070.38;;;36.34;31.12
63115;BME280;49208;50.874;6.466;2022-08-04T07:13:58;100070.97;;;36.55;30.47
63115;BME280;49208;50.874;6.466;2022-08-04T07:16:24;100064.22;;;36.32;29.87
63115;BME280;49208;50.874;6.466;2022-08-04T07:18:50;100066.38;;;36.30;30.28
63115;BME280;49208;50.874;6.466;2022-08-04T07:21:22;100069.31;;;35.80;29.71
63115;BME280;49208;50.874;6.466;2022-08-04T07:23:49;100067.69;;;35.91;31.16
63115;BME280;49208;50.874;6.466;2022-08-04T07:26:15;100062.69;;;35.99;30.26
63115;BME280;49208;50.874;6.466;2022-08-04T07:28:43;100063.19;;;36.45;31.20
63115;BME280;49208;50.874;6.466;2022-08-04T07:31:10;100064.63;;;36.96;29.88
63115;BME280;49208;50.874;6.466;2022-08-04T07:33:37;100061.78;;;37.27;29.71
63115;BME280;49208;50.874;6.466;2022-08-04T07:36:05;100068.94;;;37.58;29.79
63115;BME280;49208;50.874;6.466;2022-08-04T07:38:30;100060.06;;;38.08;28.09
63115;BME280;49208;50.874;6.466;2022-08-04T07:40:56;100062.09;;;38.25;27.58
63115;BME280;49208;50.874;6.466;2022-08-04T07:43:21;100064.94;;;38.41;27.55
63115;BME280;49208;50.874;6.466;2022-08-04T07:45:47;100066.03;;;38.52;26.82
63115;BME280;49208;50.874;6.466;2022-08-04T07:48:13;100066.09;;;38.86;27.53
63115;BME280;49208;50.874;6.466;2022-08-04T07:50:41;100064.25;;;38.92;26.59
63115;BME280;49208;50.874;6.466;2022-08-04T07:53:11;100063.84;;;39.34;26.00
63115;BME280;49208;50.874;6.466;2022-08-04T07:55:37;100064.84;;;39.78;26.66
63115;BME280;49208;50.874;6.466;2022-08-04T07:58:02;100064.25;;;39.76;25.34
63115;BME280;49208;50.874;6.466;2022-08-04T08:00:28;100058.00;;;40.08;25.06
63115;BME280;49208;50.874;6.466;2022-08-04T08:02:55;100049.63;;;40.08;23.96
63115;BME280;49208;50.874;6.466;2022-08-04T08:05:20;100061.88;;;40.07;25.48
63115;BME280;49208;50.874;6.466;2022-08-04T08:07:48;100050.88;;;39.95;25.29
63115;BME280;49208;50.874;6.466;2022-08-04T08:10:14;100052.38;;;39.64;25.98
63115;BME280;49208;50.874;6.466;2022-08-04T08:12:41;100055.28;;;39.91;24.65
63115;BME280;49208;50.874;6.466;2022-08-04T08:15:07;100052.69;;;40.29;25.28
63115;BME280;49208;50.874;6.466;2022-08-04T08:17:33;100053.66;;;40.17;24.46
63115;BME280;49208;50.874;6.466;2022-08-04T08:19:59;100044.06;;;40.08;25.31
63115;BME280;49208;50.874;6.466;2022-08-04T08:22:25;100044.44;;;39.95;25.29
63115;BME280;49208;50.874;6.466;2022-08-04T08:24:51;100050.78;;;39.90;25.81
63115;BME280;49208;50.874;6.466;2022-08-04T08:27:17;100044.75;;;39.59;24.52
63115;BME280;49208;50.874;6.466;2022-08-04T08:29:43;100050.44;;;39.31;25.05
63115;BME280;49208;50.874;6.466;2022-08-04T08:32:10;100050.25;;;39.04;25.60
63115;BME280;49208;50.874;6.466;2022-08-04T08:34:38;100048.19;;;38.82;25.73
63115;BME280;49208;50.874;6.466;2022-08-04T08:37:08;100056.16;;;38.61;25.92
63115;BME280;49208;50.874;6.466;2022-08-04T08:40:09;100039.41;;;38.45;26.02
63115;BME280;49208;50.874;6.466;2022-08-04T08:42:54;100046.06;;;37.91;27.10
63115;BME280;49208;50.874;6.466;2022-08-04T08:48:40;100048.16;;;36.71;27.81
63115;BME280;49208;50.874;6.466;2022-08-04T09:05:35;100051.16;;;36.21;28.30
63115;BME280;49208;50.874;6.466;2022-08-04T09:11:05;100054.06;;;37.17;28.40
63115;BME280;49208;50.874;6.466;2022-08-04T09:13:40;100049.78;;;37.03;26.05
63115;BME280;49208;50.874;6.466;2022-08-04T09:16:59;100050.81;;;36.90;25.44
63115;BME280;49208;50.874;6.466;2022-08-04T09:22:19;100050.94;;;37.49;25.99
63115;BME280;49208;50.874;6.466;2022-08-04T09:24:50;100053.16;;;37.58;24.89
63115;BME280;49208;50.874;6.466;2022-08-04T09:35:39;100064.56;;;37.38;25.07
63115;BME280;49208;50.874;6.466;2022-08-04T09:40:46;100071.19;;;36.72;26.62
63115;BME280;49208;50.874;6.466;2022-08-04T09:46:04;100063.06;;;36.03;27.17
63115;BME280;49208;50.874;6.466;2022-08-04T09:48:36;100075.00;;;36.04;27.53
63115;BME280;49208;50.874;6.466;2022-08-04T09:51:13;100068.06;;;36.13;26.56
63115;BME280;49208;50.874;6.466;2022-08-04T09:56:15;100073.47;;;36.26;25.30
63115;BME280;49208;50.874;6.466;2022-08-04T10:01:23;100086.09;;;36.40;25.48
63115;BME280;49208;50.874;6.466;2022-08-04T10:04:00;100084.34;;;36.76;26.17
63115;BME280;49208;50.874;6.466;2022-08-04T10:20:12;100095.75;;;37.52;24.59
63115;BME280;49208;50.874;6.466;2022-08-04T10:22:58;100100.69;;;37.08;24.43
63115;BME280;49208;50.874;6.466;2022-08-04T10:25:41;100098.34;;;36.33;24.98
63115;BME280;49208;50.874;6.466;2022-08-04T10:28:12;100105.84;;;35.89;26.06
63115;BME280;49208;50.874;6.466;2022-08-04T10:30:39;100106.78;;;35.57;27.20
63115;BME280;49208;50.874;6.466;2022-08-04T10:33:17;100109.66;;;35.44;27.10
63115;BME280;49208;50.874;6.466;2022-08-04T10:35:49;100116.38;;;35.30;28.04
63115;BME280;49208;50.874;6.466;2022-08-04T10:38:26;100110.84;;;35.30;28.70
63115;BME280;49208;50.874;6.466;2022-08-04T10:46:42;100113.88;;;35.97;28.93
63115;BME280;49208;50.874;6.466;2022-08-04T10:49:34;100110.66;;;36.37;28.01
63115;BME280;49208;50.874;6.466;2022-08-04T10:52:07;100124.28;;;36.57;27.85
63115;BME280;49208;50.874;6.466;2022-08-04T10:55:02;100122.88;;;36.66;27.37
63115;BME280;49208;50.874;6.466;2022-08-04T10:57:43;100119.25;;;36.47;27.70
63115;BME280;49208;50.874;6.466;2022-08-04T11:00:14;100117.91;;;35.94;28.29
63115;BME280;49208;50.874;6.466;2022-08-04T11:02:54;100129.88;;;35.45;29.05
63115;BME280;49208;50.874;6.466;2022-08-04T11:05:36;100120.13;;;35.10;29.15
63115;BME280;49208;50.874;6.466;2022-08-04T11:08:28;100125.16;;;34.88;28.91
63115;BME280;49208;50.874;6.466;2022-08-04T11:16:35;100128.63;;;34.05;30.19
63115;BME280;49208;50.874;6.466;2022-08-04T11:21:55;100132.06;;;33.14;31.45
63115;BME280;49208;50.874;6.466;2022-08-04T11:27:12;100114.81;;;32.37;33.40
63115;BME280;49208;50.874;6.466;2022-08-04T11:29:50;100104.72;;;32.03;35.74
63115;BME280;49208;50.874;6.466;2022-08-04T11:32:29;100118.25;;;31.69;37.83
63115;BME280;49208;50.874;6.466;2022-08-04T11:35:01;100127.44;;;31.33;38.85
63115;BME280;49208;50.874;6.466;2022-08-04T11:37:44;100128.63;;;31.02;39.70
63115;BME280;49208;50.874;6.466;2022-08-04T11:40:23;100121.97;;;30.90;39.31
63115;BME280;49208;50.874;6.466;2022-08-04T11:43:05;100109.63;;;30.86;39.97
63115;BME280;49208;50.874;6.466;2022-08-04T11:45:40;100130.28;;;30.82;39.33
63115;BME280;49208;50.874;6.466;2022-08-04T11:48:16;100124.56;;;30.83;39.55
63115;BME280;49208;50.874;6.466;2022-08-04T11:50:46;100132.53;;;30.93;39.26
63115;BME280;49208;50.874;6.466;2022-08-04T11:53:17;100126.03;;;30.94;39.14
63115;BME280;49208;50.874;6.466;2022-08-04T11:55:49;100128.47;;;30.89;38.54
63115;BME280;49208;50.874;6.466;2022-08-04T11:58:17;100125.34;;;30.77;37.67
63115;BME280;49208;50.874;6.466;2022-08-04T12:00:52;100123.47;;;30.78;37.63
63115;BME280;49208;50.874;6.466;2022-08-04T12:06:17;100132.38;;;30.80;38.44
63115;BME280;49208;50.874;6.466;2022-08-04T12:09:27;100134.63;;;30.91;38.30
63115;BME280;49208;50.874;6.466;2022-08-04T12:12:06;100147.00;;;31.02;39.08
63115;BME280;49208;50.874;6.466;2022-08-04T12:17:43;100151.13;;;31.13;39.65
63115;BME280;49208;50.874;6.466;2022-08-04T12:20:14;100145.50;;;31.21;38.18
63115;BME280;49208;50.874;6.466;2022-08-04T12:22:46;100142.56;;;31.22;37.95
63115;BME280;49208;50.874;6.466;2022-08-04T12:25:20;100137.78;;;31.31;38.08
63115;BME280;49208;50.874;6.466;2022-08-04T12:30:33;100137.34;;;31.49;38.19
63115;BME280;49208;50.874;6.466;2022-08-04T12:33:20;100128.78;;;31.66;37.70
63115;BME280;49208;50.874;6.466;2022-08-04T12:38:47;100129.81;;;31.93;37.09
63115;BME280;49208;50.874;6.466;2022-08-04T12:41:18;100127.97;;;32.00;37.62
63115;BME280;49208;50.874;6.466;2022-08-04T12:43:45;100125.28;;;32.07;36.69
63115;BME280;49208;50.874;6.466;2022-08-04T12:46:19;100133.75;;;32.05;37.28
63115;BME280;49208;50.874;6.466;2022-08-04T12:48:46;100135.19;;;32.01;37.25
63115;BME280;49208;50.874;6.466;2022-08-04T12:51:13;100133.84;;;31.90;37.58
63115;BME280;49208;50.874;6.466;2022-08-04T12:53:41;100137.34;;;31.77;36.93
63115;BME280;49208;50.874;6.466;2022-08-04T12:56:08;100136.06;;;31.73;37.63
63115;BME280;49208;50.874;6.466;2022-08-04T12:58:40;100137.75;;;31.74;37.32
63115;BME280;49208;50.874;6.466;2022-08-04T13:01:10;100134.91;;;31.61;38.01
63115;BME280;49208;50.874;6.466;2022-08-04T13:03:38;100146.28;;;31.58;38.59
63115;BME280;49208;50.874;6.466;2022-08-04T13:06:06;100154.16;;;31.61;38.54
63115;BME280;49208;50.874;6.466;2022-08-04T13:08:36;100153.22;;;31.75;38.02
63115;BME280;49208;50.874;6.466;2022-08-04T13:11:02;100152.00;;;31.85;38.60
63115;BME280;49208;50.874;6.466;2022-08-04T13:13:33;100155.06;;;31.96;38.30
63115;BME280;49208;50.874;6.466;2022-08-04T13:16:02;100144.75;;;32.05;38.24
63115;BME280;49208;50.874;6.466;2022-08-04T13:18:29;100143.94;;;32.11;38.79
63115;BME280;49208;50.874;6.466;2022-08-04T13:21:08;100140.56;;;32.16;38.74
63115;BME280;49208;50.874;6.466;2022-08-04T13:23:35;100145.53;;;32.27;38.09
63115;BME280;49208;50.874;6.466;2022-08-04T13:26:03;100139.38;;;32.25;38.06
63115;BME280;49208;50.874;6.466;2022-08-04T13:28:30;100133.44;;;32.28;37.33
63115;BME280;49208;50.874;6.466;2022-08-04T13:30:59;100136.38;;;32.27;36.88
63115;BME280;49208;50.874;6.466;2022-08-04T13:33:32;100136.00;;;32.30;37.31
63115;BME280;49208;50.874;6.466;2022-08-04T13:35:58;100133.91;;;32.38;37.11
63115;BME280;49208;50.874;6.466;2022-08-04T13:38:25;100124.84;;;32.51;36.30
63115;BME280;49208;50.874;6.466;2022-08-04T13:40:51;100135.09;;;32.64;36.48
63115;BME280;49208;50.874;6.466;2022-08-04T13:43:31;100135.53;;;32.68;35.73
63115;BME280;49208;50.874;6.466;2022-08-04T13:46:02;100140.59;;;32.57;35.96
63115;BME280;49208;50.874;6.466;2022-08-04T13:48:39;100139.88;;;32.42;36.15
63115;BME280;49208;50.874;6.466;2022-08-04T13:51:07;100145.28;;;32.22;35.81
63115;BME280;49208;50.874;6.466;2022-08-04T13:53:36;100149.06;;;31.86;36.34
63115;BME280;49208;50.874;6.466;2022-08-04T13:56:05;100157.09;;;31.59;36.85
63115;BME280;49208;50.874;6.466;2022-08-04T13:58:33;100144.59;;;31.35;37.19
63115;BME280;49208;50.874;6.466;2022-08-04T14:01:00;100142.16;;;31.04;37.49
63115;BME280;49208;50.874;6.466;2022-08-04T14:03:35;100141.47;;;30.80;37.74
63115;BME280;49208;50.874;6.466;2022-08-04T14:06:08;100136.13;;;30.57;38.29
63115;BME280;49208;50.874;6.466;2022-08-04T14:08:44;100132.09;;;30.38;38.88
63115;BME280;49208;50.874;6.466;2022-08-04T14:11:10;100136.44;;;30.18;39.52
63115;BME280;49208;50.874;6.466;2022-08-04T14:13:37;100135.31;;;29.97;39.90
63115;BME280;49208;50.874;6.466;2022-08-04T14:16:12;100138.03;;;29.83;40.42
63115;BME280;49208;50.874;6.466;2022-08-04T14:18:38;100143.28;;;29.69;41.25
63115;BME280;49208;50.874;6.466;2022-08-04T14:23:37;100135.66;;;29.41;41.88
63115;BME280;49208;50.874;6.466;2022-08-04T14:26:30;100130.97;;;29.27;42.31
63115;BME280;49208;50.874;6.466;2022-08-04T14:29:15;100138.44;;;29.18;43.03
63115;BME280;49208;50.874;6.466;2022-08-04T14:31:41;100134.34;;;29.14;43.24
63115;BME280;49208;50.874;6.466;2022-08-04T14:34:07;100142.06;;;29.11;43.93
63115;BME280;49208;50.874;6.466;2022-08-04T14:36:40;100138.81;;;29.07;43.79
63115;BME280;49208;50.874;6.466;2022-08-04T14:39:06;100136.44;;;29.04;44.21
63115;BME280;49208;50.874;6.466;2022-08-04T14:41:47;100140.41;;;29.01;45.13
63115;BME280;49208;50.874;6.466;2022-08-04T14:44:13;100136.00;;;28.92;45.48
63115;BME280;49208;50.874;6.466;2022-08-04T14:46:49;100141.88;;;28.89;45.34
63115;BME280;49208;50.874;6.466;2022-08-04T14:49:15;100135.72;;;28.87;45.94
63115;BME280;49208;50.874;6.466;2022-08-04T14:51:59;100136.94;;;28.85;46.66
63115;BME280;49208;50.874;6.466;2022-08-04T14:54:30;100137.28;;;28.81;46.08
63115;BME280;49208;50.874;6.466;2022-08-04T14:57:00;100141.59;;;28.76;46.54
63115;BME280;49208;50.874;6.466;2022-08-04T14:59:26;100137.31;;;28.73;46.47
63115;BME280;49208;50.874;6.466;2022-08-04T15:01:52;100125.69;;;28.71;46.53
63115;BME280;49208;50.874;6.466;2022-08-04T15:04:22;100129.66;;;28.69;46.56
63115;BME280;49208;50.874;6.466;2022-08-04T15:06:49;100134.97;;;28.70;46.38
63115;BME280;49208;50.874;6.466;2022-08-04T15:11:50;100141.19;;;28.56;47.07
63115;BME280;49208;50.874;6.466;2022-08-04T15:14:16;100139.66;;;28.45;47.09
63115;BME280;49208;50.874;6.466;2022-08-04T15:16:42;100140.91;;;28.34;47.27
63115;BME280;49208;50.874;6.466;2022-08-04T15:19:07;100140.25;;;28.24;47.36
63115;BME280;49208;50.874;6.466;2022-08-04T15:21:35;100135.34;;;28.19;47.29
63115;BME280;49208;50.874;6.466;2022-08-04T15:24:00;100124.25;;;28.13;47.67
63115;BME280;49208;50.874;6.466;2022-08-04T15:28:57;100146.19;;;27.96;48.28
63115;BME280;49208;50.874;6.466;2022-08-04T15:31:26;100160.56;;;27.90;48.38
63115;BME280;49208;50.874;6.466;2022-08-04T15:33:54;100158.31;;;27.86;49.33
63115;BME280;49208;50.874;6.466;2022-08-04T15:39:02;100156.59;;;27.76;49.41
63115;BME280;49208;50.874;6.466;2022-08-04T15:41:55;100143.28;;;27.73;50.24
63115;BME280;49208;50.874;6.466;2022-08-04T15:47:05;100155.25;;;27.72;49.99
63115;BME280;49208;50.874;6.466;2022-08-04T15:49:33;100158.34;;;27.77;49.58
63115;BME280;49208;50.874;6.466;2022-08-04T15:52:04;100148.25;;;27.86;49.60
63115;BME280;49208;50.874;6.466;2022-08-04T15:54:30;100139.69;;;27.97;49.53
63115;BME280;49208;50.874;6.466;2022-08-04T15:56:56;100133.00;;;28.08;48.98
63115;BME280;49208;50.874;6.466;2022-08-04T15:59:58;100131.22;;;28.24;49.18
63115;BME280;49208;50.874;6.466;2022-08-04T16:08:07;100137.66;;;28.78;47.05
63115;BME280;49208;50.874;6.466;2022-08-04T16:10:38;100149.97;;;28.83;47.45
63115;BME280;49208;50.874;6.466;2022-08-04T16:13:09;100149.28;;;28.80;46.73
63115;BME280;49208;50.874;6.466;2022-08-04T16:18:07;100134.94;;;29.01;45.92
63115;BME280;49208;50.874;6.466;2022-08-04T16:20:34;100128.88;;;29.14;45.91
63115;BME280;49208;50.874;6.466;2022-08-04T16:25:51;100134.16;;;29.16;46.12
63115;BME280;49208;50.874;6.466;2022-08-04T16:31:02;100130.31;;;29.25;45.42
63115;BME280;49208;50.874;6.466;2022-08-04T16:33:28;100125.25;;;29.37;45.86
63115;BME280;49208;50.874;6.466;2022-08-04T16:35:55;100114.13;;;29.53;45.11
63115;BME280;49208;50.874;6.466;2022-08-04T16:38:21;100105.25;;;29.66;44.84
63115;BME280;49208;50.874;6.466;2022-08-04T16:40:57;100088.66;;;29.83;44.36
63115;BME280;49208;50.874;6.466;2022-08-04T16:43:27;100085.06;;;29.97;44.39
63115;BME280;49208;50.874;6.466;2022-08-04T16:46:00;100087.22;;;30.01;44.08
63115;BME280;49208;50.874;6.466;2022-08-04T16:48:27;100085.72;;;29.99;44.55
63115;BME280;49208;50.874;6.466;2022-08-04T16:53:38;100108.44;;;29.93;44.50
63115;BME280;49208;50.874;6.466;2022-08-04T16:56:04;100111.94;;;29.87;43.99
63115;BME280;49208;50.874;6.466;2022-08-04T16:58:33;100102.56;;;29.81;43.88
63115;BME280;49208;50.874;6.466;2022-08-04T17:01:08;100097.69;;;29.68;44.23
63115;BME280;49208;50.874;6.466;2022-08-04T17:03:39;100099.84;;;29.58;45.21
63115;BME280;49208;50.874;6.466;2022-08-04T17:06:09;100092.53;;;29.50;45.23
63115;BME280;49208;50.874;6.466;2022-08-04T17:08:36;100098.09;;;29.42;45.41